EWG5LB LGIR-EDDL
Flight info
| Callsign | EWG5LB |
|---|---|
| Flight time | 3h 15m |
| Altitude | 36000 |
| Route | EPALO M749 DIRMI UL613 YNN UL604 DIMIS DCT RETRA DCT PETOV DCT LAMSI L604 RODIS DCT TESDU DCT AMETU T852 TINSA T854 DOMUX |
| Aircraft | A21N/M-SDE2E3FGHIRWXY/LB1 |
Departure
| Time | 2026-05-05 16:43 |
|---|---|
| Airport | Heraklion International Nikos Kazantzakis Airport (LGIR) |
Arrival
| Time | 2026-05-05 19:58 |
|---|---|
| Airport | Düsseldorf Airport (EDDL) |
| Time | Latitude | Longitude | Altitude | Speed | Heading |
|---|---|---|---|---|---|
| 2026-05-05 15:57 | 35.33759 | 25.17545 | 98 ft | 0 kts | 275° |
| 2026-05-05 16:37 | 35.33760 | 25.17528 | 98 ft | 3 kts | 275° |
| 2026-05-05 16:37 | 35.33771 | 25.17493 | 99 ft | 6 kts | 328° |
| 2026-05-05 16:38 | 35.33821 | 25.17494 | 96 ft | 8 kts | 5° |
| 2026-05-05 16:38 | 35.33886 | 25.17501 | 99 ft | 10 kts | 8° |
| 2026-05-05 16:38 | 35.33907 | 25.17580 | 99 ft | 12 kts | 96° |
| 2026-05-05 16:38 | 35.33899 | 25.17690 | 97 ft | 14 kts | 95° |
| 2026-05-05 16:39 | 35.33890 | 25.17814 | 97 ft | 16 kts | 95° |
| 2026-05-05 16:39 | 35.33880 | 25.17952 | 100 ft | 17 kts | 95° |
| 2026-05-05 16:39 | 35.33870 | 25.18101 | 99 ft | 18 kts | 95° |
| 2026-05-05 16:39 | 35.33859 | 25.18263 | 98 ft | 20 kts | 95° |
| 2026-05-05 16:40 | 35.33847 | 25.18434 | 96 ft | 21 kts | 95° |
| 2026-05-05 16:40 | 35.33835 | 25.18614 | 95 ft | 22 kts | 95° |
| 2026-05-05 16:40 | 35.33822 | 25.18804 | 95 ft | 23 kts | 95° |
| 2026-05-05 16:40 | 35.33819 | 25.18843 | 95 ft | 0 kts | 95° |
| 2026-05-05 16:41 | 35.33818 | 25.18855 | 95 ft | 3 kts | 95° |
| 2026-05-05 16:41 | 35.33817 | 25.18908 | 95 ft | 9 kts | 79° |
| 2026-05-05 16:42 | 35.33850 | 25.18986 | 95 ft | 11 kts | 56° |
| 2026-05-05 16:42 | 35.33882 | 25.19045 | 94 ft | 6 kts | 22° |
| 2026-05-05 16:42 | 35.33907 | 25.19010 | 96 ft | 8 kts | 275° |
| 2026-05-05 16:42 | 35.33925 | 25.18773 | 95 ft | 66 kts | 276° |
| 2026-05-05 16:43 | 35.33986 | 25.17888 | 101 ft | 139 kts | 275° |
| 2026-05-05 16:43 | 35.34070 | 25.16608 | 595 ft | 149 kts | 278° |
| 2026-05-05 16:43 | 35.34396 | 25.15402 | 1331 ft | 153 kts | 302° |
| 2026-05-05 16:43 | 35.35218 | 25.14441 | 1865 ft | 177 kts | 332° |
| 2026-05-05 16:44 | 35.36459 | 25.13998 | 2394 ft | 198 kts | 342° |
| 2026-05-05 16:44 | 35.37865 | 25.13506 | 2871 ft | 225 kts | 341° |
| 2026-05-05 16:44 | 35.39445 | 25.12932 | 3415 ft | 246 kts | 342° |
| 2026-05-05 16:44 | 35.41108 | 25.12322 | 4254 ft | 252 kts | 342° |
| 2026-05-05 16:45 | 35.42805 | 25.11700 | 5176 ft | 255 kts | 343° |
| 2026-05-05 16:45 | 35.44516 | 25.11069 | 6094 ft | 258 kts | 344° |
| 2026-05-05 16:45 | 35.46237 | 25.10434 | 6998 ft | 259 kts | 344° |
| 2026-05-05 16:45 | 35.47970 | 25.09794 | 7869 ft | 262 kts | 344° |
| 2026-05-05 16:46 | 35.49723 | 25.09148 | 8766 ft | 264 kts | 343° |
| 2026-05-05 16:46 | 35.51472 | 25.08502 | 9658 ft | 268 kts | 343° |
| 2026-05-05 16:46 | 35.53272 | 25.07833 | 10402 ft | 277 kts | 343° |
| 2026-05-05 16:46 | 35.55195 | 25.07119 | 10737 ft | 300 kts | 342° |
| 2026-05-05 16:47 | 35.57262 | 25.06348 | 11019 ft | 322 kts | 342° |
| 2026-05-05 16:47 | 35.59344 | 25.05131 | 11282 ft | 343 kts | 327° |
| 2026-05-05 16:47 | 35.61320 | 25.03333 | 11541 ft | 363 kts | 323° |
| 2026-05-05 16:47 | 35.63359 | 25.01397 | 11832 ft | 377 kts | 323° |
| 2026-05-05 16:48 | 35.65462 | 24.99427 | 12322 ft | 383 kts | 323° |
| 2026-05-05 16:48 | 35.67595 | 24.97438 | 12914 ft | 386 kts | 323° |
| 2026-05-05 16:48 | 35.69722 | 24.95481 | 13517 ft | 389 kts | 323° |
| 2026-05-05 16:48 | 35.71897 | 24.93481 | 14079 ft | 392 kts | 323° |
| 2026-05-05 16:49 | 35.74078 | 24.91457 | 14584 ft | 394 kts | 323° |
| 2026-05-05 16:49 | 35.76270 | 24.89422 | 15127 ft | 396 kts | 323° |
| 2026-05-05 16:49 | 35.78476 | 24.87379 | 15699 ft | 398 kts | 323° |
| 2026-05-05 16:49 | 35.80694 | 24.85319 | 16191 ft | 400 kts | 323° |
| 2026-05-05 16:50 | 35.82913 | 24.83245 | 16651 ft | 402 kts | 323° |
| 2026-05-05 16:50 | 35.85144 | 24.81161 | 17104 ft | 403 kts | 323° |
| 2026-05-05 16:50 | 35.87390 | 24.79077 | 17553 ft | 405 kts | 323° |
| 2026-05-05 16:50 | 35.89650 | 24.76977 | 18010 ft | 407 kts | 323° |
| 2026-05-05 16:51 | 35.91922 | 24.74879 | 18448 ft | 409 kts | 323° |
| 2026-05-05 16:51 | 35.94178 | 24.72805 | 18835 ft | 411 kts | 323° |
| 2026-05-05 16:51 | 35.96466 | 24.70673 | 19248 ft | 413 kts | 322° |
| 2026-05-05 16:51 | 35.98765 | 24.68537 | 19687 ft | 414 kts | 323° |
| 2026-05-05 16:52 | 36.01071 | 24.66387 | 20131 ft | 416 kts | 322° |
| 2026-05-05 16:52 | 36.03380 | 24.64216 | 20552 ft | 418 kts | 322° |
| 2026-05-05 16:52 | 36.05696 | 24.62039 | 21014 ft | 420 kts | 322° |
| 2026-05-05 16:52 | 36.08038 | 24.59855 | 21528 ft | 423 kts | 323° |
| 2026-05-05 16:53 | 36.10390 | 24.57660 | 22046 ft | 425 kts | 323° |
| 2026-05-05 16:53 | 36.12745 | 24.55446 | 22516 ft | 427 kts | 322° |
| 2026-05-05 16:53 | 36.15112 | 24.53217 | 22966 ft | 429 kts | 322° |
| 2026-05-05 16:53 | 36.17497 | 24.50990 | 23396 ft | 431 kts | 323° |
| 2026-05-05 16:54 | 36.19892 | 24.48744 | 23791 ft | 433 kts | 322° |
| 2026-05-05 16:54 | 36.22289 | 24.46493 | 24226 ft | 432 kts | 323° |
| 2026-05-05 16:54 | 36.24644 | 24.44277 | 24725 ft | 429 kts | 322° |
| 2026-05-05 16:54 | 36.27010 | 24.42048 | 25243 ft | 426 kts | 323° |
| 2026-05-05 16:55 | 36.29361 | 24.39829 | 25765 ft | 423 kts | 323° |
| 2026-05-05 16:55 | 36.31697 | 24.37632 | 26279 ft | 420 kts | 323° |
| 2026-05-05 16:55 | 36.34018 | 24.35441 | 26808 ft | 417 kts | 323° |
| 2026-05-05 16:55 | 36.36320 | 24.33270 | 27318 ft | 415 kts | 323° |
| 2026-05-05 16:56 | 36.38610 | 24.31111 | 27833 ft | 412 kts | 323° |
| 2026-05-05 16:56 | 36.40884 | 24.28963 | 28322 ft | 410 kts | 323° |
| 2026-05-05 16:56 | 36.43146 | 24.26821 | 28818 ft | 407 kts | 323° |
| 2026-05-05 16:56 | 36.45363 | 24.24726 | 29306 ft | 405 kts | 323° |
| 2026-05-05 16:57 | 36.47600 | 24.22612 | 29795 ft | 403 kts | 323° |
| 2026-05-05 16:57 | 36.49818 | 24.20508 | 30252 ft | 401 kts | 323° |
| 2026-05-05 16:57 | 36.52028 | 24.18405 | 30627 ft | 400 kts | 323° |
| 2026-05-05 16:57 | 36.54235 | 24.16312 | 30967 ft | 399 kts | 323° |
| 2026-05-05 16:58 | 36.56444 | 24.14216 | 31302 ft | 399 kts | 323° |
| 2026-05-05 16:58 | 36.58645 | 24.12123 | 31634 ft | 398 kts | 322° |
| 2026-05-05 16:58 | 36.60844 | 24.10033 | 31996 ft | 397 kts | 323° |
| 2026-05-05 16:58 | 36.63040 | 24.07947 | 32339 ft | 396 kts | 322° |
| 2026-05-05 16:59 | 36.65225 | 24.05860 | 32636 ft | 396 kts | 322° |
| 2026-05-05 16:59 | 36.67413 | 24.03773 | 32895 ft | 397 kts | 322° |
| 2026-05-05 16:59 | 36.69609 | 24.01679 | 33188 ft | 397 kts | 322° |
| 2026-05-05 16:59 | 36.71796 | 23.99589 | 33469 ft | 396 kts | 322° |
| 2026-05-05 17:00 | 36.73986 | 23.97500 | 33758 ft | 396 kts | 322° |
| 2026-05-05 17:00 | 36.76142 | 23.95438 | 34026 ft | 396 kts | 322° |
| 2026-05-05 17:00 | 36.78326 | 23.93356 | 34262 ft | 395 kts | 322° |
| 2026-05-05 17:00 | 36.80506 | 23.91273 | 34480 ft | 395 kts | 321° |
| 2026-05-05 17:01 | 36.82683 | 23.89189 | 34697 ft | 394 kts | 321° |
| 2026-05-05 17:01 | 36.84859 | 23.87102 | 34886 ft | 394 kts | 321° |
| 2026-05-05 17:01 | 36.87032 | 23.85015 | 35105 ft | 394 kts | 321° |
| 2026-05-05 17:01 | 36.89204 | 23.82930 | 35329 ft | 393 kts | 321° |
| 2026-05-05 17:02 | 36.91367 | 23.80852 | 35539 ft | 392 kts | 321° |
| 2026-05-05 17:02 | 36.93532 | 23.78783 | 35727 ft | 391 kts | 321° |
| 2026-05-05 17:02 | 36.95688 | 23.76710 | 35895 ft | 391 kts | 321° |
| 2026-05-05 17:02 | 36.97845 | 23.74638 | 36030 ft | 391 kts | 321° |
| 2026-05-05 17:03 | 37.02136 | 23.70512 | 36077 ft | 391 kts | 321° |
| 2026-05-05 17:03 | 37.06453 | 23.66371 | 36057 ft | 391 kts | 321° |
| 2026-05-05 17:04 | 37.10763 | 23.62206 | 36048 ft | 391 kts | 321° |
| 2026-05-05 17:04 | 37.15069 | 23.58036 | 36057 ft | 391 kts | 321° |
| 2026-05-05 17:05 | 37.19335 | 23.53894 | 36050 ft | 390 kts | 321° |
| 2026-05-05 17:05 | 37.23627 | 23.49719 | 36047 ft | 390 kts | 321° |
| 2026-05-05 17:06 | 37.27905 | 23.45529 | 36044 ft | 390 kts | 321° |
| 2026-05-05 17:06 | 37.32202 | 23.41360 | 36039 ft | 389 kts | 321° |
| 2026-05-05 17:07 | 37.36468 | 23.37191 | 36044 ft | 388 kts | 321° |
| 2026-05-05 17:07 | 37.40737 | 23.33023 | 36045 ft | 388 kts | 321° |
| 2026-05-05 17:08 | 37.44971 | 23.28866 | 36051 ft | 388 kts | 321° |
| 2026-05-05 17:08 | 37.49247 | 23.24688 | 36049 ft | 390 kts | 321° |
| 2026-05-05 17:09 | 37.53520 | 23.20493 | 36046 ft | 388 kts | 321° |
| 2026-05-05 17:09 | 37.57783 | 23.16314 | 36049 ft | 389 kts | 321° |
| 2026-05-05 17:10 | 37.62048 | 23.12118 | 36052 ft | 389 kts | 321° |
| 2026-05-05 17:10 | 37.66285 | 23.07948 | 36044 ft | 389 kts | 322° |
| 2026-05-05 17:11 | 37.70543 | 23.03737 | 36067 ft | 389 kts | 322° |
| 2026-05-05 17:11 | 37.74793 | 22.99544 | 36049 ft | 387 kts | 321° |
| 2026-05-05 17:12 | 37.79029 | 22.95347 | 36058 ft | 388 kts | 321° |
| 2026-05-05 17:12 | 37.83269 | 22.91143 | 36055 ft | 387 kts | 321° |
| 2026-05-05 17:13 | 37.86786 | 22.87649 | 36058 ft | 387 kts | 321° |
| 2026-05-05 17:13 | 37.91011 | 22.83438 | 36055 ft | 387 kts | 321° |
| 2026-05-05 17:14 | 37.95922 | 22.78538 | 36060 ft | 386 kts | 321° |
| 2026-05-05 17:14 | 37.99437 | 22.75038 | 36069 ft | 386 kts | 321° |
| 2026-05-05 17:15 | 38.03646 | 22.70849 | 36070 ft | 385 kts | 321° |
| 2026-05-05 17:15 | 38.07849 | 22.66650 | 36069 ft | 385 kts | 321° |
| 2026-05-05 17:16 | 38.12043 | 22.62431 | 36068 ft | 385 kts | 321° |
| 2026-05-05 17:16 | 38.16240 | 22.58215 | 36072 ft | 385 kts | 321° |
| 2026-05-05 17:17 | 38.20418 | 22.54029 | 36075 ft | 385 kts | 321° |
| 2026-05-05 17:17 | 38.24612 | 22.49799 | 36075 ft | 385 kts | 321° |
| 2026-05-05 17:18 | 38.28790 | 22.45574 | 36070 ft | 383 kts | 321° |
| 2026-05-05 17:18 | 38.32984 | 22.41338 | 36081 ft | 385 kts | 321° |
| 2026-05-05 17:19 | 38.37186 | 22.37100 | 36082 ft | 386 kts | 321° |
| 2026-05-05 17:19 | 38.41402 | 22.32848 | 36081 ft | 386 kts | 321° |
| 2026-05-05 17:20 | 38.45582 | 22.28612 | 36094 ft | 387 kts | 321° |
| 2026-05-05 17:20 | 38.49800 | 22.24325 | 36093 ft | 387 kts | 321° |
| 2026-05-05 17:21 | 38.54008 | 22.20048 | 36090 ft | 386 kts | 321° |
| 2026-05-05 17:22 | 38.60292 | 22.13644 | 36105 ft | 387 kts | 320° |
| 2026-05-05 17:22 | 38.64505 | 22.09337 | 36104 ft | 389 kts | 320° |
| 2026-05-05 17:23 | 38.68740 | 22.05007 | 36103 ft | 389 kts | 320° |
| 2026-05-05 17:23 | 38.72972 | 22.00672 | 36090 ft | 389 kts | 320° |
| 2026-05-05 17:24 | 38.77215 | 21.96324 | 36098 ft | 390 kts | 320° |
| 2026-05-05 17:24 | 38.81448 | 21.91970 | 36125 ft | 391 kts | 320° |
| 2026-05-05 17:25 | 38.85671 | 21.87620 | 36106 ft | 392 kts | 320° |
| 2026-05-05 17:25 | 38.89919 | 21.83244 | 36109 ft | 391 kts | 320° |
| 2026-05-05 17:26 | 38.94158 | 21.78871 | 36093 ft | 392 kts | 320° |
| 2026-05-05 17:26 | 38.98418 | 21.74445 | 36108 ft | 395 kts | 320° |
| 2026-05-05 17:27 | 39.02692 | 21.70024 | 36098 ft | 394 kts | 320° |
| 2026-05-05 17:27 | 39.06927 | 21.65625 | 36111 ft | 394 kts | 319° |
| 2026-05-05 17:27 | 39.09053 | 21.63408 | 36230 ft | 395 kts | 319° |
| 2026-05-05 17:28 | 39.11192 | 21.61186 | 36385 ft | 395 kts | 319° |
| 2026-05-05 17:28 | 39.13329 | 21.58962 | 36534 ft | 395 kts | 319° |
| 2026-05-05 17:28 | 39.15469 | 21.56736 | 36670 ft | 395 kts | 319° |
| 2026-05-05 17:28 | 39.17605 | 21.54516 | 36816 ft | 395 kts | 319° |
| 2026-05-05 17:29 | 39.19744 | 21.52290 | 36942 ft | 395 kts | 319° |
| 2026-05-05 17:29 | 39.21881 | 21.50058 | 37072 ft | 396 kts | 319° |
| 2026-05-05 17:29 | 39.24028 | 21.47825 | 37194 ft | 396 kts | 319° |
| 2026-05-05 17:29 | 39.26174 | 21.45589 | 37340 ft | 397 kts | 319° |
| 2026-05-05 17:30 | 39.28319 | 21.43344 | 37485 ft | 397 kts | 319° |
| 2026-05-05 17:30 | 39.30461 | 21.41096 | 37622 ft | 397 kts | 319° |
| 2026-05-05 17:30 | 39.32605 | 21.38854 | 37748 ft | 397 kts | 319° |
| 2026-05-05 17:30 | 39.34748 | 21.36610 | 37876 ft | 397 kts | 318° |
| 2026-05-05 17:31 | 39.36864 | 21.34390 | 38004 ft | 397 kts | 318° |
| 2026-05-05 17:31 | 39.39010 | 21.32140 | 38113 ft | 398 kts | 318° |
| 2026-05-05 17:31 | 39.41158 | 21.29880 | 38143 ft | 398 kts | 318° |
| 2026-05-05 17:32 | 39.45455 | 21.25359 | 38129 ft | 398 kts | 318° |
| 2026-05-05 17:32 | 39.49747 | 21.20824 | 38136 ft | 398 kts | 318° |
| 2026-05-05 17:33 | 39.54030 | 21.16271 | 38129 ft | 398 kts | 318° |
| 2026-05-05 17:33 | 39.58317 | 21.11737 | 38131 ft | 397 kts | 318° |
| 2026-05-05 17:34 | 39.62583 | 21.07239 | 38150 ft | 398 kts | 318° |
| 2026-05-05 17:34 | 39.66865 | 21.02689 | 38139 ft | 398 kts | 318° |
| 2026-05-05 17:35 | 39.71148 | 20.98136 | 38135 ft | 398 kts | 318° |
| 2026-05-05 17:35 | 39.75421 | 20.93578 | 38141 ft | 398 kts | 318° |
| 2026-05-05 17:36 | 39.79695 | 20.89007 | 38140 ft | 397 kts | 318° |
| 2026-05-05 17:36 | 39.83966 | 20.84435 | 38139 ft | 398 kts | 318° |
| 2026-05-05 17:37 | 39.88219 | 20.79898 | 38135 ft | 400 kts | 318° |
| 2026-05-05 17:37 | 39.92531 | 20.75278 | 38146 ft | 402 kts | 318° |
| 2026-05-05 17:38 | 39.96848 | 20.70647 | 38136 ft | 402 kts | 318° |
| 2026-05-05 17:38 | 40.01151 | 20.66000 | 38129 ft | 400 kts | 318° |
| 2026-05-05 17:39 | 40.05452 | 20.61364 | 38132 ft | 402 kts | 319° |
| 2026-05-05 17:39 | 40.10258 | 20.57678 | 38133 ft | 408 kts | 333° |
| 2026-05-05 17:40 | 40.15479 | 20.54792 | 38134 ft | 406 kts | 333° |
| 2026-05-05 17:40 | 40.20679 | 20.51885 | 38132 ft | 407 kts | 333° |
| 2026-05-05 17:41 | 40.25876 | 20.48921 | 38142 ft | 406 kts | 333° |
| 2026-05-05 17:41 | 40.31032 | 20.45977 | 38135 ft | 409 kts | 333° |
| 2026-05-05 17:42 | 40.36246 | 20.43032 | 38150 ft | 408 kts | 334° |
| 2026-05-05 17:42 | 40.41445 | 20.40078 | 38145 ft | 407 kts | 333° |
| 2026-05-05 17:43 | 40.46636 | 20.37120 | 38151 ft | 407 kts | 333° |
| 2026-05-05 17:43 | 40.51826 | 20.34143 | 38162 ft | 406 kts | 333° |
| 2026-05-05 17:44 | 40.56973 | 20.31203 | 38150 ft | 406 kts | 333° |
| 2026-05-05 17:44 | 40.62136 | 20.28233 | 38143 ft | 402 kts | 333° |
| 2026-05-05 17:45 | 40.67263 | 20.25267 | 38137 ft | 403 kts | 334° |
| 2026-05-05 17:45 | 40.72392 | 20.22301 | 38146 ft | 403 kts | 334° |
| 2026-05-05 17:46 | 40.77494 | 20.19357 | 38129 ft | 403 kts | 334° |
| 2026-05-05 17:46 | 40.82631 | 20.16390 | 38136 ft | 402 kts | 334° |
| 2026-05-05 17:47 | 40.87758 | 20.13437 | 38120 ft | 402 kts | 333° |
| 2026-05-05 17:47 | 40.92902 | 20.10462 | 38121 ft | 405 kts | 334° |
| 2026-05-05 17:48 | 40.98033 | 20.07518 | 38129 ft | 405 kts | 334° |
| 2026-05-05 17:48 | 41.03183 | 20.04535 | 38118 ft | 404 kts | 333° |
| 2026-05-05 17:49 | 41.08334 | 20.01526 | 38114 ft | 405 kts | 333° |
| 2026-05-05 17:49 | 41.13481 | 19.98524 | 38123 ft | 404 kts | 333° |
| 2026-05-05 17:50 | 41.18588 | 19.95540 | 38120 ft | 404 kts | 333° |
| 2026-05-05 17:50 | 41.23733 | 19.92532 | 38114 ft | 404 kts | 333° |
| 2026-05-05 17:51 | 41.28882 | 19.89517 | 38118 ft | 405 kts | 333° |
| 2026-05-05 17:51 | 41.34022 | 19.86472 | 38113 ft | 404 kts | 333° |
| 2026-05-05 17:52 | 41.39173 | 19.83446 | 38118 ft | 405 kts | 333° |
| 2026-05-05 17:52 | 41.44291 | 19.80442 | 38115 ft | 405 kts | 333° |
| 2026-05-05 17:53 | 41.49452 | 19.77392 | 38112 ft | 407 kts | 333° |
| 2026-05-05 17:53 | 41.54619 | 19.74320 | 38115 ft | 407 kts | 333° |
| 2026-05-05 17:54 | 41.59787 | 19.71249 | 38108 ft | 406 kts | 333° |
| 2026-05-05 17:54 | 41.64923 | 19.68216 | 38109 ft | 406 kts | 333° |
| 2026-05-05 17:55 | 41.70085 | 19.65148 | 38104 ft | 406 kts | 333° |
| 2026-05-05 17:55 | 41.75249 | 19.62069 | 38103 ft | 407 kts | 332° |
| 2026-05-05 17:56 | 41.80415 | 19.58990 | 38103 ft | 407 kts | 332° |
| 2026-05-05 17:56 | 41.85553 | 19.55921 | 38102 ft | 407 kts | 332° |
| 2026-05-05 17:57 | 41.90720 | 19.52830 | 38106 ft | 407 kts | 332° |
| 2026-05-05 17:57 | 41.95893 | 19.49730 | 38096 ft | 408 kts | 332° |
| 2026-05-05 17:58 | 42.01077 | 19.46614 | 38095 ft | 408 kts | 332° |
| 2026-05-05 17:58 | 42.06271 | 19.43474 | 38094 ft | 410 kts | 332° |
| 2026-05-05 17:59 | 42.11440 | 19.40354 | 38091 ft | 410 kts | 332° |
| 2026-05-05 17:59 | 42.16645 | 19.37211 | 38094 ft | 410 kts | 332° |
| 2026-05-05 18:00 | 42.21855 | 19.34050 | 38088 ft | 411 kts | 331° |
| 2026-05-05 18:00 | 42.26869 | 19.30418 | 38078 ft | 408 kts | 327° |
| 2026-05-05 18:01 | 42.31786 | 19.26678 | 38078 ft | 409 kts | 327° |
| 2026-05-05 18:01 | 42.36739 | 19.22910 | 38087 ft | 409 kts | 327° |
| 2026-05-05 18:02 | 42.41690 | 19.19129 | 38087 ft | 409 kts | 327° |
| 2026-05-05 18:02 | 42.46647 | 19.15333 | 38087 ft | 410 kts | 327° |
| 2026-05-05 18:03 | 42.51569 | 19.11562 | 38063 ft | 410 kts | 327° |
| 2026-05-05 18:03 | 42.56549 | 19.07733 | 38082 ft | 412 kts | 327° |
| 2026-05-05 18:04 | 42.61525 | 19.03899 | 38080 ft | 411 kts | 327° |
| 2026-05-05 18:04 | 42.66509 | 19.00058 | 38080 ft | 412 kts | 327° |
| 2026-05-05 18:05 | 42.71456 | 18.96239 | 38093 ft | 412 kts | 327° |
| 2026-05-05 18:05 | 42.76439 | 18.92382 | 38087 ft | 412 kts | 327° |
| 2026-05-05 18:06 | 42.81246 | 18.88656 | 38089 ft | 412 kts | 327° |
| 2026-05-05 18:06 | 42.86233 | 18.84783 | 38087 ft | 414 kts | 327° |
| 2026-05-05 18:07 | 42.91223 | 18.80894 | 38095 ft | 413 kts | 327° |
| 2026-05-05 18:07 | 42.96179 | 18.77030 | 38086 ft | 414 kts | 326° |
| 2026-05-05 18:08 | 43.01185 | 18.73122 | 38089 ft | 415 kts | 326° |
| 2026-05-05 18:08 | 43.06197 | 18.69188 | 38095 ft | 415 kts | 326° |
| 2026-05-05 18:09 | 43.11208 | 18.65247 | 38099 ft | 415 kts | 326° |
| 2026-05-05 18:09 | 43.16210 | 18.61318 | 38092 ft | 414 kts | 326° |
| 2026-05-05 18:10 | 43.21177 | 18.57414 | 38087 ft | 414 kts | 326° |
| 2026-05-05 18:10 | 43.26168 | 18.53482 | 38097 ft | 414 kts | 326° |
| 2026-05-05 18:11 | 43.31161 | 18.49538 | 38098 ft | 414 kts | 326° |
| 2026-05-05 18:11 | 43.36163 | 18.45584 | 38088 ft | 414 kts | 326° |
| 2026-05-05 18:12 | 43.41127 | 18.41650 | 38085 ft | 417 kts | 326° |
| 2026-05-05 18:12 | 43.46165 | 18.37648 | 38093 ft | 418 kts | 326° |
| 2026-05-05 18:13 | 43.51202 | 18.33638 | 38098 ft | 418 kts | 326° |
| 2026-05-05 18:13 | 43.56243 | 18.29618 | 38092 ft | 419 kts | 326° |
| 2026-05-05 18:14 | 43.61241 | 18.25614 | 38079 ft | 418 kts | 326° |
| 2026-05-05 18:14 | 43.66269 | 18.21570 | 38085 ft | 418 kts | 326° |
| 2026-05-05 18:15 | 43.71297 | 18.17526 | 38081 ft | 418 kts | 326° |
| 2026-05-05 18:15 | 43.76322 | 18.13479 | 38086 ft | 418 kts | 326° |
| 2026-05-05 18:16 | 43.81352 | 18.09426 | 38081 ft | 418 kts | 326° |
| 2026-05-05 18:16 | 43.86349 | 18.05389 | 38078 ft | 420 kts | 326° |
| 2026-05-05 18:17 | 43.91381 | 18.01319 | 38072 ft | 419 kts | 326° |
| 2026-05-05 18:17 | 43.96414 | 17.97238 | 38080 ft | 419 kts | 326° |
| 2026-05-05 18:18 | 44.01463 | 17.93144 | 38065 ft | 421 kts | 326° |
| 2026-05-05 18:18 | 44.06486 | 17.89060 | 38061 ft | 421 kts | 326° |
| 2026-05-05 18:19 | 44.11541 | 17.84941 | 38058 ft | 421 kts | 326° |
| 2026-05-05 18:19 | 44.16591 | 17.80819 | 38051 ft | 421 kts | 326° |
| 2026-05-05 18:20 | 44.21638 | 17.76685 | 38057 ft | 420 kts | 326° |
| 2026-05-05 18:20 | 44.26652 | 17.72570 | 38043 ft | 422 kts | 326° |
| 2026-05-05 18:21 | 44.31710 | 17.68421 | 38037 ft | 422 kts | 326° |
| 2026-05-05 18:21 | 44.36770 | 17.64256 | 38035 ft | 422 kts | 325° |
| 2026-05-05 18:22 | 44.41831 | 17.60080 | 38018 ft | 423 kts | 326° |
| 2026-05-05 18:22 | 44.46871 | 17.55910 | 38025 ft | 424 kts | 325° |
| 2026-05-05 18:23 | 44.51930 | 17.51714 | 38024 ft | 423 kts | 325° |
| 2026-05-05 18:23 | 44.57002 | 17.47511 | 38023 ft | 423 kts | 325° |
| 2026-05-05 18:24 | 44.62067 | 17.43302 | 38008 ft | 423 kts | 325° |
| 2026-05-05 18:24 | 44.67131 | 17.39078 | 38004 ft | 424 kts | 325° |
| 2026-05-05 18:25 | 44.72165 | 17.34873 | 38004 ft | 423 kts | 325° |
| 2026-05-05 18:25 | 44.77233 | 17.30639 | 37985 ft | 424 kts | 325° |
| 2026-05-05 18:26 | 44.82320 | 17.26372 | 37992 ft | 426 kts | 325° |
| 2026-05-05 18:26 | 44.87416 | 17.22098 | 38003 ft | 426 kts | 325° |
| 2026-05-05 18:27 | 44.92466 | 17.17836 | 37996 ft | 426 kts | 325° |
| 2026-05-05 18:27 | 44.97557 | 17.13546 | 37993 ft | 426 kts | 325° |
| 2026-05-05 18:28 | 45.05184 | 17.07091 | 37984 ft | 427 kts | 325° |
| 2026-05-05 18:28 | 45.10300 | 17.02755 | 37992 ft | 429 kts | 325° |
| 2026-05-05 18:29 | 45.15376 | 16.98435 | 37980 ft | 428 kts | 325° |
| 2026-05-05 18:29 | 45.20482 | 16.94085 | 37987 ft | 428 kts | 325° |
| 2026-05-05 18:30 | 45.25591 | 16.89725 | 37985 ft | 429 kts | 325° |
| 2026-05-05 18:30 | 45.30704 | 16.85350 | 37981 ft | 429 kts | 325° |
| 2026-05-05 18:31 | 45.35780 | 16.80994 | 37985 ft | 430 kts | 325° |
| 2026-05-05 18:31 | 45.40895 | 16.76597 | 37983 ft | 430 kts | 325° |
| 2026-05-05 18:32 | 45.46012 | 16.72189 | 37983 ft | 430 kts | 325° |
| 2026-05-05 18:32 | 45.51131 | 16.67777 | 37974 ft | 430 kts | 325° |
| 2026-05-05 18:33 | 45.56209 | 16.63385 | 37976 ft | 430 kts | 325° |
| 2026-05-05 18:33 | 45.61327 | 16.58946 | 37975 ft | 432 kts | 325° |
| 2026-05-05 18:34 | 45.66466 | 16.54474 | 37977 ft | 433 kts | 325° |
| 2026-05-05 18:34 | 45.71605 | 16.50006 | 37969 ft | 433 kts | 325° |
| 2026-05-05 18:35 | 45.76714 | 16.45553 | 37965 ft | 433 kts | 325° |
| 2026-05-05 18:35 | 45.81845 | 16.41071 | 37973 ft | 431 kts | 325° |
| 2026-05-05 18:36 | 45.86967 | 16.36583 | 37971 ft | 431 kts | 324° |
| 2026-05-05 18:36 | 45.92104 | 16.32066 | 37970 ft | 434 kts | 325° |
| 2026-05-05 18:37 | 45.97256 | 16.27534 | 37962 ft | 434 kts | 325° |
| 2026-05-05 18:37 | 46.02365 | 16.23024 | 37976 ft | 434 kts | 325° |
| 2026-05-05 18:38 | 46.07506 | 16.18479 | 37962 ft | 433 kts | 324° |
| 2026-05-05 18:38 | 46.12642 | 16.13933 | 37962 ft | 433 kts | 324° |
| 2026-05-05 18:39 | 46.17781 | 16.09370 | 37963 ft | 435 kts | 324° |
| 2026-05-05 18:39 | 46.22909 | 16.04811 | 37954 ft | 436 kts | 324° |
| 2026-05-05 18:40 | 46.28061 | 16.00208 | 37945 ft | 434 kts | 325° |
| 2026-05-05 18:40 | 46.33132 | 15.95497 | 37946 ft | 433 kts | 323° |
| 2026-05-05 18:41 | 46.38134 | 15.90654 | 37940 ft | 433 kts | 323° |
| 2026-05-05 18:41 | 46.43103 | 15.85825 | 37915 ft | 433 kts | 323° |
| 2026-05-05 18:42 | 46.48104 | 15.80957 | 37904 ft | 433 kts | 323° |
| 2026-05-05 18:42 | 46.53102 | 15.76075 | 37912 ft | 433 kts | 322° |
| 2026-05-05 18:43 | 46.58100 | 15.71196 | 37906 ft | 433 kts | 322° |
| 2026-05-05 18:43 | 46.63065 | 15.66340 | 37909 ft | 433 kts | 322° |
| 2026-05-05 18:44 | 46.68060 | 15.61441 | 37909 ft | 433 kts | 322° |
| 2026-05-05 18:44 | 46.73051 | 15.56526 | 37904 ft | 434 kts | 322° |
| 2026-05-05 18:45 | 46.78065 | 15.51578 | 37889 ft | 436 kts | 322° |
| 2026-05-05 18:45 | 46.83051 | 15.46648 | 37881 ft | 436 kts | 322° |
| 2026-05-05 18:46 | 46.88075 | 15.41676 | 37887 ft | 436 kts | 322° |
| 2026-05-05 18:46 | 46.93100 | 15.36688 | 37877 ft | 436 kts | 322° |
| 2026-05-05 18:47 | 46.98119 | 15.31691 | 37899 ft | 437 kts | 322° |
| 2026-05-05 18:47 | 47.03144 | 15.26682 | 37881 ft | 437 kts | 322° |
| 2026-05-05 18:48 | 47.08139 | 15.21693 | 37878 ft | 437 kts | 322° |
| 2026-05-05 18:48 | 47.13169 | 15.16662 | 37872 ft | 437 kts | 322° |
| 2026-05-05 18:49 | 47.18191 | 15.11622 | 37875 ft | 437 kts | 321° |
| 2026-05-05 18:49 | 47.23216 | 15.06564 | 37879 ft | 438 kts | 321° |
| 2026-05-05 18:50 | 47.28211 | 15.01521 | 37868 ft | 440 kts | 322° |
| 2026-05-05 18:50 | 47.33258 | 14.96419 | 37870 ft | 440 kts | 322° |
| 2026-05-05 18:51 | 47.38294 | 14.91293 | 37869 ft | 440 kts | 321° |
| 2026-05-05 18:51 | 47.43325 | 14.86172 | 37869 ft | 439 kts | 321° |
| 2026-05-05 18:52 | 47.48315 | 14.81087 | 37866 ft | 438 kts | 322° |
| 2026-05-05 18:52 | 47.53326 | 14.75970 | 37844 ft | 438 kts | 322° |
| 2026-05-05 18:53 | 47.58366 | 14.70814 | 37828 ft | 440 kts | 322° |
| 2026-05-05 18:53 | 47.63388 | 14.65655 | 37799 ft | 440 kts | 321° |
| 2026-05-05 18:54 | 47.68393 | 14.60512 | 37805 ft | 440 kts | 321° |
| 2026-05-05 18:54 | 47.73412 | 14.55339 | 37800 ft | 439 kts | 321° |
| 2026-05-05 18:55 | 47.78416 | 14.50167 | 37794 ft | 438 kts | 321° |
| 2026-05-05 18:55 | 47.83418 | 14.44979 | 37760 ft | 440 kts | 321° |
| 2026-05-05 18:56 | 47.88411 | 14.39797 | 37759 ft | 440 kts | 321° |
| 2026-05-05 18:56 | 47.93425 | 14.34567 | 37747 ft | 440 kts | 321° |
| 2026-05-05 18:57 | 47.98437 | 14.29333 | 37759 ft | 440 kts | 321° |
| 2026-05-05 18:57 | 48.03451 | 14.24085 | 37755 ft | 440 kts | 321° |
| 2026-05-05 18:58 | 48.08424 | 14.18868 | 37753 ft | 440 kts | 321° |
| 2026-05-05 18:58 | 48.13463 | 14.13590 | 37768 ft | 444 kts | 321° |
| 2026-05-05 18:59 | 48.18523 | 14.08286 | 37771 ft | 443 kts | 321° |
| 2026-05-05 18:59 | 48.23563 | 14.02956 | 37749 ft | 443 kts | 321° |
| 2026-05-05 19:00 | 48.28596 | 13.97636 | 37761 ft | 442 kts | 321° |
| 2026-05-05 19:00 | 48.33585 | 13.92333 | 37748 ft | 442 kts | 321° |
| 2026-05-05 19:01 | 48.38271 | 13.86473 | 37771 ft | 437 kts | 308° |
| 2026-05-05 19:01 | 48.42273 | 13.79540 | 37757 ft | 439 kts | 307° |
| 2026-05-05 19:02 | 48.46300 | 13.72623 | 37756 ft | 440 kts | 307° |
| 2026-05-05 19:02 | 48.50327 | 13.65770 | 37758 ft | 439 kts | 308° |
| 2026-05-05 19:03 | 48.54372 | 13.58874 | 37760 ft | 440 kts | 308° |
| 2026-05-05 19:03 | 48.58440 | 13.51916 | 37780 ft | 443 kts | 307° |
| 2026-05-05 19:04 | 48.62525 | 13.44915 | 37775 ft | 444 kts | 307° |
| 2026-05-05 19:04 | 48.66583 | 13.37948 | 37774 ft | 444 kts | 307° |
| 2026-05-05 19:05 | 48.70658 | 13.30921 | 37785 ft | 444 kts | 307° |
| 2026-05-05 19:05 | 48.74730 | 13.23880 | 37779 ft | 444 kts | 307° |
| 2026-05-05 19:06 | 48.78797 | 13.16839 | 37806 ft | 445 kts | 307° |
| 2026-05-05 19:06 | 48.82882 | 13.09737 | 37783 ft | 447 kts | 307° |
| 2026-05-05 19:07 | 48.86936 | 13.02674 | 37780 ft | 447 kts | 307° |
| 2026-05-05 19:07 | 48.91015 | 12.95550 | 37773 ft | 447 kts | 307° |
| 2026-05-05 19:08 | 48.95092 | 12.88413 | 37784 ft | 447 kts | 307° |
| 2026-05-05 19:08 | 48.99164 | 12.81265 | 37783 ft | 447 kts | 307° |
| 2026-05-05 19:09 | 49.03204 | 12.74159 | 37788 ft | 447 kts | 307° |
| 2026-05-05 19:09 | 49.07261 | 12.66987 | 37787 ft | 446 kts | 307° |
| 2026-05-05 19:10 | 49.11318 | 12.59804 | 37791 ft | 446 kts | 307° |
| 2026-05-05 19:10 | 49.15358 | 12.52640 | 37791 ft | 445 kts | 307° |
| 2026-05-05 19:11 | 49.19396 | 12.45451 | 37804 ft | 448 kts | 307° |
| 2026-05-05 19:11 | 49.23436 | 12.38234 | 37787 ft | 450 kts | 306° |
| 2026-05-05 19:12 | 49.27506 | 12.30942 | 37787 ft | 450 kts | 306° |
| 2026-05-05 19:12 | 49.31572 | 12.23649 | 37789 ft | 450 kts | 306° |
| 2026-05-05 19:13 | 49.35629 | 12.16347 | 37788 ft | 449 kts | 307° |
| 2026-05-05 19:13 | 49.39653 | 12.09079 | 37800 ft | 452 kts | 306° |
| 2026-05-05 19:14 | 49.43727 | 12.01711 | 37777 ft | 453 kts | 306° |
| 2026-05-05 19:14 | 49.47758 | 11.94290 | 37774 ft | 451 kts | 303° |
| 2026-05-05 19:15 | 49.51511 | 11.86564 | 37779 ft | 451 kts | 303° |
| 2026-05-05 19:15 | 49.55254 | 11.78821 | 37776 ft | 450 kts | 302° |
| 2026-05-05 19:16 | 49.58956 | 11.71127 | 37799 ft | 451 kts | 302° |
| 2026-05-05 19:16 | 49.62692 | 11.63343 | 37784 ft | 452 kts | 303° |
| 2026-05-05 19:17 | 49.66425 | 11.55549 | 37783 ft | 452 kts | 303° |
| 2026-05-05 19:17 | 49.70156 | 11.47740 | 37785 ft | 452 kts | 303° |
| 2026-05-05 19:18 | 49.73878 | 11.39915 | 37795 ft | 452 kts | 303° |
| 2026-05-05 19:18 | 49.77589 | 11.32084 | 37805 ft | 452 kts | 302° |
| 2026-05-05 19:19 | 49.81284 | 11.24277 | 37801 ft | 453 kts | 302° |
| 2026-05-05 19:19 | 49.84993 | 11.16391 | 37794 ft | 453 kts | 302° |
| 2026-05-05 19:20 | 49.88698 | 11.08504 | 37798 ft | 452 kts | 302° |
| 2026-05-05 19:20 | 49.92402 | 11.00603 | 37802 ft | 453 kts | 302° |
| 2026-05-05 19:21 | 49.96108 | 10.92683 | 37812 ft | 454 kts | 302° |
| 2026-05-05 19:21 | 49.99793 | 10.84785 | 37807 ft | 454 kts | 302° |
| 2026-05-05 19:22 | 50.03494 | 10.76838 | 37801 ft | 454 kts | 302° |
| 2026-05-05 19:22 | 50.07188 | 10.68860 | 37799 ft | 455 kts | 302° |
| 2026-05-05 19:23 | 50.10891 | 10.60861 | 37799 ft | 455 kts | 302° |
| 2026-05-05 19:23 | 50.14585 | 10.52843 | 37804 ft | 456 kts | 302° |
| 2026-05-05 19:24 | 50.18279 | 10.44807 | 37800 ft | 456 kts | 302° |
| 2026-05-05 19:24 | 50.21935 | 10.36796 | 37797 ft | 456 kts | 301° |
| 2026-05-05 19:25 | 50.25565 | 10.28689 | 37788 ft | 455 kts | 301° |
| 2026-05-05 19:25 | 50.29184 | 10.20569 | 37797 ft | 455 kts | 301° |
| 2026-05-05 19:26 | 50.32811 | 10.12436 | 37806 ft | 456 kts | 301° |
| 2026-05-05 19:26 | 50.36413 | 10.04341 | 37796 ft | 456 kts | 301° |
| 2026-05-05 19:27 | 50.40029 | 9.96174 | 37798 ft | 457 kts | 301° |
| 2026-05-05 19:27 | 50.43664 | 9.87931 | 37797 ft | 459 kts | 301° |
| 2026-05-05 19:28 | 50.47295 | 9.79684 | 37806 ft | 459 kts | 301° |
| 2026-05-05 19:28 | 50.50908 | 9.71451 | 37812 ft | 457 kts | 301° |
| 2026-05-05 19:29 | 50.54483 | 9.63275 | 37794 ft | 457 kts | 301° |
| 2026-05-05 19:29 | 50.58079 | 9.55025 | 37792 ft | 457 kts | 301° |
| 2026-05-05 19:30 | 50.61671 | 9.46773 | 37796 ft | 457 kts | 301° |
| 2026-05-05 19:30 | 50.65252 | 9.38503 | 37795 ft | 457 kts | 301° |
| 2026-05-05 19:31 | 50.68813 | 9.30265 | 37796 ft | 456 kts | 301° |
| 2026-05-05 19:31 | 50.70582 | 9.26161 | 37482 ft | 453 kts | 301° |
| 2026-05-05 19:31 | 50.72357 | 9.22025 | 37177 ft | 456 kts | 300° |
| 2026-05-05 19:32 | 50.74131 | 9.17882 | 36708 ft | 456 kts | 301° |
| 2026-05-05 19:32 | 50.75915 | 9.13732 | 36042 ft | 457 kts | 301° |
| 2026-05-05 19:32 | 50.77700 | 9.09570 | 35367 ft | 459 kts | 301° |
| 2026-05-05 19:32 | 50.79491 | 9.05379 | 34693 ft | 462 kts | 301° |
| 2026-05-05 19:33 | 50.81510 | 9.01360 | 34225 ft | 474 kts | 314° |
| 2026-05-05 19:33 | 50.83997 | 8.97966 | 33731 ft | 471 kts | 319° |
| 2026-05-05 19:33 | 50.86543 | 8.94722 | 33076 ft | 468 kts | 320° |
| 2026-05-05 19:33 | 50.88214 | 8.92578 | 32636 ft | 466 kts | 320° |
| 2026-05-05 19:34 | 50.90716 | 8.89328 | 31934 ft | 464 kts | 319° |
| 2026-05-05 19:34 | 50.94014 | 8.84986 | 30798 ft | 467 kts | 320° |
| 2026-05-05 19:34 | 50.96514 | 8.81668 | 29903 ft | 470 kts | 320° |
| 2026-05-05 19:35 | 51.01548 | 8.74967 | 27753 ft | 475 kts | 319° |
| 2026-05-05 19:35 | 51.04086 | 8.71575 | 26784 ft | 476 kts | 319° |
| 2026-05-05 19:35 | 51.06604 | 8.68217 | 26176 ft | 469 kts | 319° |
| 2026-05-05 19:35 | 51.08243 | 8.66034 | 25970 ft | 460 kts | 319° |
| 2026-05-05 19:36 | 51.10688 | 8.62768 | 25816 ft | 457 kts | 319° |
| 2026-05-05 19:36 | 51.13114 | 8.59511 | 25784 ft | 457 kts | 319° |
| 2026-05-05 19:36 | 51.16326 | 8.55192 | 25797 ft | 456 kts | 319° |
| 2026-05-05 19:36 | 51.18752 | 8.51930 | 25787 ft | 456 kts | 319° |
| 2026-05-05 19:37 | 51.20990 | 8.48437 | 25480 ft | 446 kts | 308° |
| 2026-05-05 19:37 | 51.22147 | 8.45673 | 24943 ft | 443 kts | 296° |
| 2026-05-05 19:37 | 51.23259 | 8.41197 | 24206 ft | 439 kts | 286° |
| 2026-05-05 19:37 | 51.24175 | 8.36588 | 23522 ft | 436 kts | 285° |
| 2026-05-05 19:38 | 51.25110 | 8.31987 | 22795 ft | 432 kts | 286° |
| 2026-05-05 19:38 | 51.26059 | 8.27478 | 22105 ft | 427 kts | 287° |
| 2026-05-05 19:38 | 51.27024 | 8.23028 | 21441 ft | 422 kts | 287° |
| 2026-05-05 19:38 | 51.27981 | 8.18623 | 20766 ft | 417 kts | 287° |
| 2026-05-05 19:39 | 51.28921 | 8.14266 | 20119 ft | 413 kts | 287° |
| 2026-05-05 19:39 | 51.29847 | 8.10011 | 19505 ft | 408 kts | 287° |
| 2026-05-05 19:39 | 51.30785 | 8.05690 | 18877 ft | 404 kts | 287° |
| 2026-05-05 19:39 | 51.31697 | 8.01469 | 18282 ft | 400 kts | 287° |
| 2026-05-05 19:40 | 51.32585 | 7.97351 | 17632 ft | 396 kts | 287° |
| 2026-05-05 19:40 | 51.33479 | 7.93202 | 16965 ft | 392 kts | 288° |
| 2026-05-05 19:40 | 51.34363 | 7.89099 | 16306 ft | 388 kts | 288° |
| 2026-05-05 19:40 | 51.35234 | 7.85035 | 15668 ft | 385 kts | 288° |
| 2026-05-05 19:41 | 51.36098 | 7.81006 | 15059 ft | 381 kts | 288° |
| 2026-05-05 19:41 | 51.36958 | 7.77011 | 14466 ft | 377 kts | 288° |
| 2026-05-05 19:41 | 51.37809 | 7.73067 | 13875 ft | 374 kts | 288° |
| 2026-05-05 19:41 | 51.38653 | 7.69143 | 13237 ft | 371 kts | 288° |
| 2026-05-05 19:42 | 51.39484 | 7.65250 | 12628 ft | 367 kts | 288° |
| 2026-05-05 19:42 | 51.40304 | 7.61406 | 12078 ft | 362 kts | 288° |
| 2026-05-05 19:42 | 51.41111 | 7.57609 | 11500 ft | 359 kts | 288° |
| 2026-05-05 19:42 | 51.41894 | 7.53867 | 11148 ft | 349 kts | 288° |
| 2026-05-05 19:43 | 51.42645 | 7.50246 | 10937 ft | 336 kts | 288° |
| 2026-05-05 19:43 | 51.43356 | 7.46805 | 10772 ft | 323 kts | 288° |
| 2026-05-05 19:43 | 51.44046 | 7.43451 | 10625 ft | 311 kts | 288° |
| 2026-05-05 19:43 | 51.44487 | 7.40144 | 10448 ft | 299 kts | 271° |
| 2026-05-05 19:44 | 51.44387 | 7.36863 | 10183 ft | 292 kts | 264° |
| 2026-05-05 19:44 | 51.44171 | 7.33633 | 9879 ft | 292 kts | 263° |
| 2026-05-05 19:44 | 51.43933 | 7.30394 | 9803 ft | 292 kts | 263° |
| 2026-05-05 19:44 | 51.43692 | 7.27166 | 9785 ft | 292 kts | 263° |
| 2026-05-05 19:45 | 51.43450 | 7.23946 | 9808 ft | 291 kts | 263° |
| 2026-05-05 19:45 | 51.43209 | 7.20724 | 9817 ft | 292 kts | 263° |
| 2026-05-05 19:45 | 51.42969 | 7.17518 | 9822 ft | 288 kts | 263° |
| 2026-05-05 19:45 | 51.42735 | 7.14376 | 9825 ft | 288 kts | 263° |
| 2026-05-05 19:46 | 51.42499 | 7.11198 | 9826 ft | 287 kts | 263° |
| 2026-05-05 19:46 | 51.42262 | 7.08016 | 9825 ft | 288 kts | 263° |
| 2026-05-05 19:46 | 51.42023 | 7.04830 | 9824 ft | 288 kts | 263° |
| 2026-05-05 19:46 | 51.41786 | 7.01651 | 9823 ft | 288 kts | 263° |
| 2026-05-05 19:47 | 51.41546 | 6.98464 | 9822 ft | 288 kts | 263° |
| 2026-05-05 19:47 | 51.41307 | 6.95282 | 9823 ft | 288 kts | 263° |
| 2026-05-05 19:47 | 51.41068 | 6.92095 | 9822 ft | 288 kts | 263° |
| 2026-05-05 19:47 | 51.40829 | 6.88919 | 9824 ft | 287 kts | 263° |
| 2026-05-05 19:48 | 51.40593 | 6.85784 | 9824 ft | 288 kts | 263° |
| 2026-05-05 19:48 | 51.40353 | 6.82602 | 9824 ft | 288 kts | 263° |
| 2026-05-05 19:48 | 51.40112 | 6.79424 | 9824 ft | 288 kts | 263° |
| 2026-05-05 19:48 | 51.39616 | 6.76346 | 9779 ft | 284 kts | 244° |
| 2026-05-05 19:49 | 51.38580 | 6.73680 | 9368 ft | 282 kts | 234° |
| 2026-05-05 19:49 | 51.37416 | 6.71151 | 8902 ft | 282 kts | 233° |
| 2026-05-05 19:49 | 51.36234 | 6.68656 | 8481 ft | 281 kts | 233° |
| 2026-05-05 19:49 | 51.35051 | 6.66173 | 8080 ft | 280 kts | 233° |
| 2026-05-05 19:50 | 51.33878 | 6.63703 | 7677 ft | 278 kts | 233° |
| 2026-05-05 19:50 | 51.32727 | 6.61267 | 7300 ft | 278 kts | 233° |
| 2026-05-05 19:50 | 51.31571 | 6.58814 | 6762 ft | 275 kts | 233° |
| 2026-05-05 19:50 | 51.30429 | 6.56377 | 6141 ft | 273 kts | 233° |
| 2026-05-05 19:51 | 51.29295 | 6.53947 | 5484 ft | 272 kts | 233° |
| 2026-05-05 19:51 | 51.28163 | 6.51526 | 4831 ft | 271 kts | 233° |
| 2026-05-05 19:51 | 51.27036 | 6.49121 | 4191 ft | 270 kts | 233° |
| 2026-05-05 19:51 | 51.25919 | 6.46740 | 3821 ft | 264 kts | 233° |
| 2026-05-05 19:52 | 51.24704 | 6.44646 | 3655 ft | 253 kts | 213° |
| 2026-05-05 19:52 | 51.23133 | 6.43650 | 3516 ft | 238 kts | 184° |
| 2026-05-05 19:52 | 51.21551 | 6.43947 | 3270 ft | 226 kts | 154° |
| 2026-05-05 19:52 | 51.20211 | 6.45150 | 3022 ft | 220 kts | 143° |
| 2026-05-05 19:53 | 51.19063 | 6.46587 | 2955 ft | 200 kts | 124° |
| 2026-05-05 19:53 | 51.18575 | 6.48583 | 2960 ft | 193 kts | 90° |
| 2026-05-05 19:53 | 51.18620 | 6.50720 | 2987 ft | 194 kts | 84° |
| 2026-05-05 19:53 | 51.18743 | 6.52860 | 2996 ft | 193 kts | 83° |
| 2026-05-05 19:54 | 51.18877 | 6.54987 | 2992 ft | 192 kts | 78° |
| 2026-05-05 19:54 | 51.19317 | 6.56961 | 2954 ft | 189 kts | 60° |
| 2026-05-05 19:54 | 51.20012 | 6.58647 | 2844 ft | 174 kts | 51° |
| 2026-05-05 19:54 | 51.20744 | 6.60114 | 2639 ft | 166 kts | 52° |
| 2026-05-05 19:55 | 51.21435 | 6.61541 | 2402 ft | 160 kts | 53° |
| 2026-05-05 19:55 | 51.22088 | 6.62903 | 2170 ft | 153 kts | 52° |
| 2026-05-05 19:55 | 51.22716 | 6.64218 | 1950 ft | 145 kts | 52° |
| 2026-05-05 19:55 | 51.23310 | 6.65461 | 1753 ft | 137 kts | 51° |
| 2026-05-05 19:56 | 51.23888 | 6.66671 | 1567 ft | 136 kts | 50° |
| 2026-05-05 19:56 | 51.24436 | 6.67819 | 1430 ft | 124 kts | 51° |
| 2026-05-05 19:56 | 51.24958 | 6.68913 | 1265 ft | 124 kts | 50° |
| 2026-05-05 19:56 | 51.25478 | 6.70004 | 1082 ft | 124 kts | 50° |
| 2026-05-05 19:57 | 51.26007 | 6.71113 | 883 ft | 126 kts | 49° |
| 2026-05-05 19:57 | 51.26537 | 6.72224 | 697 ft | 128 kts | 49° |
| 2026-05-05 19:57 | 51.27070 | 6.73338 | 524 ft | 126 kts | 49° |
| 2026-05-05 19:57 | 51.27593 | 6.74438 | 338 ft | 127 kts | 48° |
| 2026-05-05 19:58 | 51.28129 | 6.75556 | 180 ft | 127 kts | 49° |
| 2026-05-05 19:58 | 51.28626 | 6.76597 | 134 ft | 102 kts | 51° |
| 2026-05-05 19:58 | 51.28951 | 6.77268 | 134 ft | 43 kts | 53° |
| 2026-05-05 19:58 | 51.29031 | 6.77496 | 134 ft | 13 kts | 95° |
| 2026-05-05 19:59 | 51.28991 | 6.77588 | 134 ft | 6 kts | 145° |
| 2026-05-05 19:59 | 51.28956 | 6.77627 | 134 ft | 7 kts | 144° |
| 2026-05-05 19:59 | 51.28912 | 6.77658 | 135 ft | 7 kts | 207° |
| 2026-05-05 19:59 | 51.28875 | 6.77584 | 135 ft | 10 kts | 234° |
| 2026-05-05 20:00 | 51.28829 | 6.77484 | 135 ft | 13 kts | 232° |
| 2026-05-05 20:00 | 51.28769 | 6.77360 | 135 ft | 15 kts | 232° |
| 2026-05-05 20:00 | 51.28698 | 6.77214 | 135 ft | 18 kts | 233° |
| 2026-05-05 20:00 | 51.28618 | 6.77046 | 135 ft | 20 kts | 233° |
| 2026-05-05 20:01 | 51.28530 | 6.76860 | 133 ft | 22 kts | 233° |
| 2026-05-05 20:01 | 51.28434 | 6.76661 | 127 ft | 24 kts | 232° |
| 2026-05-05 20:01 | 51.28357 | 6.76499 | 129 ft | 8 kts | 227° |
| 2026-05-05 20:01 | 51.28295 | 6.76498 | 128 ft | 11 kts | 169° |
| 2026-05-05 20:02 | 51.28221 | 6.76436 | 132 ft | 10 kts | 194° |
| 2026-05-05 20:02 | 51.28198 | 6.76431 | 133 ft | 1 kts | 182° |
| 2026-05-05 20:02 | 51.28194 | 6.76458 | 133 ft | 4 kts | 76° |
| 2026-05-05 20:02 | 51.28196 | 6.76489 | 132 ft | 4 kts | 90° |
| 2026-05-05 20:03 | 51.28195 | 6.76524 | 133 ft | 0 kts | 95° |
| 2026-05-05 20:03 | 51.28194 | 6.76545 | 133 ft | 4 kts | 97° |
| 2026-05-05 20:03 | 51.28194 | 6.76547 | 133 ft | 0 kts | 97° |